Time;durP1;ratioP1;P1;durP2;ratioP2;P2;SDS_P1;SDS_P2;PMS_P1;PMS_P2;Temp;Humidity;BMP_temperature;BMP_pressure;BME280_temperature;BME280_humidity;BME280_pressure;Samples;Min_cycle;Max_cycle;Signal;HPM_P1;HPM_P2
2022/03/02 00:01:00;;;;;;;;;;;-0.80;44.90;;;;;;5042398;28;19920;-79
2022/03/02 00:03:27;;;;;;;;;;;-0.80;45.30;;;;;;5056001;28;19987;-83
2022/03/02 00:05:53;;;;;;;;;;;-0.80;44.80;;;;;;5055006;28;19924;-79
2022/03/02 00:08:20;;;;;;;;;;;-0.80;45.10;;;;;;5072789;28;19920;-79
2022/03/02 00:10:46;;;;;;;;;;;-0.90;44.70;;;;;;5056158;28;19917;-79
2022/03/02 00:13:12;;;;;;;;;;;-0.90;45.30;;;;;;5056539;28;19928;-79
2022/03/02 00:15:38;;;;;;;;;;;-0.90;45.30;;;;;;5070524;28;19927;-80
2022/03/02 00:18:04;;;;;;;;;;;-0.90;45.40;;;;;;5071794;28;19924;-83
2022/03/02 00:20:30;;;;;;;;;;;-1.00;45.50;;;;;;5056873;28;19921;-84
2022/03/02 00:22:56;;;;;;;;;;;-1.00;45.60;;;;;;5070694;28;20009;-79
2022/03/02 00:25:22;;;;;;;;;;;-1.00;45.70;;;;;;5072071;28;19920;-84
2022/03/02 00:27:48;;;;;;;;;;;-1.00;45.60;;;;;;5073049;28;19923;-79
2022/03/02 00:30:14;;;;;;;;;;;-1.00;45.80;;;;;;5071371;28;19953;-78
2022/03/02 00:32:40;;;;;;;;;;;-1.10;45.40;;;;;;5058407;28;20003;-79
2022/03/02 00:35:07;;;;;;;;;;;-1.10;45.30;;;;;;5064195;28;19938;-78
2022/03/02 00:37:33;;;;;;;;;;;-1.10;45.50;;;;;;5042486;28;19913;-84
2022/03/02 00:39:59;;;;;;;;;;;-1.10;46.20;;;;;;5056690;28;19920;-83
2022/03/02 00:42:25;;;;;;;;;;;-1.10;46.10;;;;;;5038472;28;20215;-84
2022/03/02 00:44:51;;;;;;;;;;;-1.10;46.20;;;;;;5059148;28;20396;-79
2022/03/02 00:47:18;;;;;;;;;;;-1.10;46.30;;;;;;5069543;28;19942;-79
2022/03/02 00:49:44;;;;;;;;;;;-1.20;45.70;;;;;;5037834;28;20332;-78
2022/03/02 00:52:11;;;;;;;;;;;-1.20;45.80;;;;;;5054656;28;19996;-83
2022/03/02 00:54:37;;;;;;;;;;;-1.20;45.80;;;;;;5071900;28;19943;-83
2022/03/02 00:57:04;;;;;;;;;;;-1.20;46.30;;;;;;5037476;28;20313;-79
2022/03/02 00:59:29;;;;;;;;;;;-1.20;46.40;;;;;;5055100;28;19948;-85
2022/03/02 01:01:55;;;;;;;;;;;-1.20;46.50;;;;;;5072739;28;19920;-79
2022/03/02 01:04:22;;;;;;;;;;;-1.20;46.50;;;;;;5057229;28;19916;-78
2022/03/02 01:06:48;;;;;;;;;;;-1.20;46.60;;;;;;5053391;28;19920;-78
2022/03/02 01:09:14;;;;;;;;;;;-1.20;46.70;;;;;;5051401;28;19920;-83
2022/03/02 01:11:40;;;;;;;;;;;-1.20;46.70;;;;;;5055329;28;19925;-78
2022/03/02 01:14:06;;;;;;;;;;;-1.30;46.20;;;;;;5055009;28;19912;-83
2022/03/02 01:16:33;;;;;;;;;;;-1.30;46.20;;;;;;5055028;28;19921;-78
2022/03/02 01:18:59;;;;;;;;;;;-1.30;46.90;;;;;;5053384;28;19924;-79
2022/03/02 01:21:25;;;;;;;;;;;-1.30;46.60;;;;;;5062677;28;19920;-83
2022/03/02 01:23:53;;;;;;;;;;;-1.30;47.10;;;;;;5070121;28;19927;-80
2022/03/02 01:26:39;;;;;;;;;;;-1.40;47.00;;;;;;5055725;28;19952;-78
2022/03/02 01:29:05;;;;;;;;;;;-1.40;46.90;;;;;;5071103;28;20486;-78
2022/03/02 01:31:32;;;;;;;;;;;-1.40;46.90;;;;;;5064256;28;20301;-82
2022/03/02 01:33:58;;;;;;;;;;;-1.50;46.50;;;;;;5060477;28;19921;-83
2022/03/02 01:36:24;;;;;;;;;;;-1.50;46.60;;;;;;5052901;28;20037;-84
2022/03/02 01:38:51;;;;;;;;;;;-1.50;47.00;;;;;;5070069;28;20007;-78
2022/03/02 01:41:20;;;;;;;;;;;-1.50;46.60;;;;;;5057204;28;19912;-79
2022/03/02 01:43:47;;;;;;;;;;;-1.50;47.10;;;;;;5069793;28;19955;-79
2022/03/02 01:46:15;;;;;;;;;;;-1.50;47.10;;;;;;5037644;28;20340;-84
2022/03/02 01:48:42;;;;;;;;;;;-1.50;47.10;;;;;;5054502;28;20112;-78
2022/03/02 01:51:08;;;;;;;;;;;-1.60;47.10;;;;;;5064805;28;20015;-78
2022/03/02 01:53:35;;;;;;;;;;;-1.60;46.70;;;;;;5070599;28;19920;-84
2022/03/02 01:56:01;;;;;;;;;;;-1.60;47.20;;;;;;5055115;28;20362;-84
2022/03/02 01:58:28;;;;;;;;;;;-1.60;47.20;;;;;;5018819;28;19975;-78
2022/03/02 02:00:55;;;;;;;;;;;-1.60;47.30;;;;;;5065208;28;19927;-78
2022/03/02 02:03:21;;;;;;;;;;;-1.60;47.50;;;;;;5070769;28;20018;-79
2022/03/02 02:05:47;;;;;;;;;;;-1.60;47.60;;;;;;5054871;28;19947;-85
2022/03/02 02:08:13;;;;;;;;;;;-1.70;47.70;;;;;;5052740;28;19971;-82
2022/03/02 02:10:39;;;;;;;;;;;-1.70;47.70;;;;;;5047246;28;19962;-84
2022/03/02 02:13:06;;;;;;;;;;;-1.70;47.70;;;;;;5065909;28;19920;-81
2022/03/02 02:15:32;;;;;;;;;;;-1.70;48.60;;;;;;5043487;28;19951;-78
2022/03/02 02:17:58;;;;;;;;;;;-1.80;47.30;;;;;;5054188;28;19927;-84
2022/03/02 02:20:25;;;;;;;;;;;-1.80;47.90;;;;;;5043289;28;20393;-79
2022/03/02 02:22:51;;;;;;;;;;;-1.80;47.90;;;;;;5070696;28;19916;-78
2022/03/02 02:25:18;;;;;;;;;;;-1.90;47.80;;;;;;5070006;28;19921;-84
2022/03/02 02:27:46;;;;;;;;;;;-1.90;47.90;;;;;;5064532;28;19944;-78
2022/03/02 02:30:13;;;;;;;;;;;-1.90;48.00;;;;;;5041134;28;20381;-84
2022/03/02 02:32:40;;;;;;;;;;;-1.90;48.00;;;;;;5066904;28;19927;-78
2022/03/02 02:35:08;;;;;;;;;;;-1.90;48.00;;;;;;5066786;28;20612;-84
2022/03/02 02:37:36;;;;;;;;;;;-1.90;48.00;;;;;;5036266;28;19912;-85
2022/03/02 02:40:24;;;;;;;;;;;-1.90;48.00;;;;;;5053673;28;19940;-78
2022/03/02 02:42:50;;;;;;;;;;;-2.00;48.00;;;;;;5053313;28;19920;-79
2022/03/02 02:45:20;;;;;;;;;;;-1.90;48.30;;;;;;5052554;28;19916;-82
2022/03/02 02:47:49;;;;;;;;;;;-2.00;48.20;;;;;;5037877;28;20288;-84
2022/03/02 02:50:19;;;;;;;;;;;-2.00;48.20;;;;;;5038547;28;19921;-78
2022/03/02 02:52:46;;;;;;;;;;;-2.00;48.30;;;;;;5069755;28;19968;-78
2022/03/02 02:55:13;;;;;;;;;;;-2.00;48.40;;;;;;5070052;28;19924;-78
2022/03/02 02:57:40;;;;;;;;;;;-2.10;48.40;;;;;;5051647;28;19920;-78
2022/03/02 03:00:10;;;;;;;;;;;-2.10;48.40;;;;;;5052988;28;19920;-78
2022/03/02 03:02:37;;;;;;;;;;;-2.10;48.50;;;;;;5069501;28;20369;-79
2022/03/02 03:05:03;;;;;;;;;;;-2.10;48.70;;;;;;5052336;28;19986;-84
2022/03/02 03:07:29;;;;;;;;;;;-2.10;48.20;;;;;;5052386;28;19913;-84
2022/03/02 03:09:55;;;;;;;;;;;-2.10;48.80;;;;;;5054115;28;19927;-78
2022/03/02 03:12:21;;;;;;;;;;;-2.10;48.80;;;;;;5066048;28;19926;-84
2022/03/02 03:14:47;;;;;;;;;;;-2.10;48.90;;;;;;5057317;28;19921;-84
2022/03/02 03:17:13;;;;;;;;;;;-2.10;48.90;;;;;;5053858;28;19921;-84
2022/03/02 03:19:39;;;;;;;;;;;-2.20;48.90;;;;;;5062195;28;19916;-84
2022/03/02 03:22:06;;;;;;;;;;;-2.20;49.00;;;;;;5060542;28;20370;-84
2022/03/02 03:24:32;;;;;;;;;;;-2.20;48.80;;;;;;5052399;28;19921;-84
2022/03/02 03:26:59;;;;;;;;;;;-2.30;48.50;;;;;;5051883;28;20399;-84
2022/03/02 03:29:25;;;;;;;;;;;-2.20;49.00;;;;;;5052921;28;20064;-84
2022/03/02 03:31:51;;;;;;;;;;;-2.20;49.00;;;;;;5059734;28;19927;-79
2022/03/02 03:34:17;;;;;;;;;;;-2.30;49.20;;;;;;5064108;28;20344;-84
2022/03/02 03:36:43;;;;;;;;;;;-2.30;49.10;;;;;;5052596;28;19920;-79
2022/03/02 03:39:09;;;;;;;;;;;-2.30;48.60;;;;;;5052943;28;19958;-78
2022/03/02 03:41:35;;;;;;;;;;;-2.30;49.10;;;;;;5053685;28;19921;-84
2022/03/02 03:44:01;;;;;;;;;;;-2.30;49.20;;;;;;5070602;28;19938;-79
2022/03/02 03:46:28;;;;;;;;;;;-2.40;49.00;;;;;;5052102;28;20393;-83
2022/03/02 03:48:54;;;;;;;;;;;-2.40;49.00;;;;;;5051013;28;19950;-79
2022/03/02 03:51:20;;;;;;;;;;;-2.40;50.10;;;;;;5068521;28;19950;-79
2022/03/02 03:53:46;;;;;;;;;;;-2.40;49.40;;;;;;5067611;28;20014;-84
2022/03/02 03:56:12;;;;;;;;;;;-2.40;49.30;;;;;;5054732;28;19920;-78
2022/03/02 03:58:38;;;;;;;;;;;-2.40;48.80;;;;;;5050034;28;19922;-80
2022/03/02 04:01:04;;;;;;;;;;;-2.40;49.50;;;;;;5065869;28;19920;-79
2022/03/02 04:03:30;;;;;;;;;;;-2.40;49.10;;;;;;5058662;28;19943;-79
2022/03/02 04:05:56;;;;;;;;;;;-2.40;49.50;;;;;;5069000;28;19920;-84
2022/03/02 04:08:22;;;;;;;;;;;-2.50;49.50;;;;;;5070067;28;19912;-79
2022/03/02 04:10:49;;;;;;;;;;;-2.40;49.60;;;;;;5068872;28;19913;-84
2022/03/02 04:13:15;;;;;;;;;;;-2.50;49.50;;;;;;5031840;28;19931;-84
2022/03/02 04:15:41;;;;;;;;;;;-2.50;49.70;;;;;;5058453;28;20019;-83
2022/03/02 04:18:08;;;;;;;;;;;-2.50;49.10;;;;;;5044806;28;19939;-80
2022/03/02 04:20:34;;;;;;;;;;;-2.50;49.80;;;;;;5067919;28;19963;-83
2022/03/02 04:23:00;;;;;;;;;;;-2.60;49.50;;;;;;5068445;28;20003;-79
2022/03/02 04:25:26;;;;;;;;;;;-2.60;49.70;;;;;;5050092;28;20267;-83
2022/03/02 04:27:52;;;;;;;;;;;-2.60;49.70;;;;;;5050328;28;19975;-84
2022/03/02 04:30:18;;;;;;;;;;;-2.60;49.70;;;;;;5060233;28;20078;-83
2022/03/02 04:32:44;;;;;;;;;;;-2.60;49.70;;;;;;5052365;28;19923;-84
2022/03/02 04:35:12;;;;;;;;;;;-2.60;49.70;;;;;;5048756;28;19925;-79
2022/03/02 04:37:39;;;;;;;;;;;-2.60;49.60;;;;;;5052016;28;19924;-84
2022/03/02 04:40:07;;;;;;;;;;;-2.70;49.60;;;;;;5051826;28;19921;-83
2022/03/02 04:42:33;;;;;;;;;;;-2.70;49.70;;;;;;5050467;28;19927;-79
2022/03/02 04:44:59;;;;;;;;;;;-2.70;49.30;;;;;;5053340;28;19917;-79
2022/03/02 04:47:25;;;;;;;;;;;-2.70;49.30;;;;;;5046660;28;19916;-84
2022/03/02 04:49:52;;;;;;;;;;;-2.80;49.40;;;;;;5056579;28;19928;-78
2022/03/02 04:52:19;;;;;;;;;;;-2.80;49.40;;;;;;5038721;28;19960;-85
2022/03/02 04:57:29;;;;;;;;;;;-2.80;50.10;;;;;;5065901;28;20034;-84
2022/03/02 04:59:55;;;;;;;;;;;-2.80;50.00;;;;;;5061114;28;20425;-79
2022/03/02 05:02:21;;;;;;;;;;;-2.80;50.10;;;;;;5054244;28;19923;-84
2022/03/02 05:04:49;;;;;;;;;;;-2.80;50.00;;;;;;5040026;28;19921;-80
2022/03/02 05:07:15;;;;;;;;;;;-2.80;50.10;;;;;;5044871;28;19920;-79
2022/03/02 05:09:42;;;;;;;;;;;-2.80;50.00;;;;;;5067061;28;19921;-84
2022/03/02 05:12:08;;;;;;;;;;;-2.90;49.60;;;;;;5071130;28;19928;-79
2022/03/02 05:14:34;;;;;;;;;;;-2.90;49.60;;;;;;5071967;28;19916;-83
2022/03/02 05:17:00;;;;;;;;;;;-2.90;50.20;;;;;;5070238;28;19928;-80
2022/03/02 05:19:26;;;;;;;;;;;-2.80;50.30;;;;;;5056741;28;19951;-82
2022/03/02 05:21:52;;;;;;;;;;;-2.90;50.30;;;;;;5072561;28;20011;-80
2022/03/02 05:24:18;;;;;;;;;;;-2.90;50.40;;;;;;5053279;28;19916;-80
2022/03/02 05:26:44;;;;;;;;;;;-2.90;50.40;;;;;;5087612;28;19916;-83
2022/03/02 05:29:10;;;;;;;;;;;-2.90;50.40;;;;;;5071323;28;19917;-79
2022/03/02 05:31:36;;;;;;;;;;;-2.80;50.40;;;;;;5055831;28;19926;-83
2022/03/02 05:34:02;;;;;;;;;;;-2.90;50.40;;;;;;5070972;28;19928;-80
2022/03/02 05:36:28;;;;;;;;;;;-2.90;50.50;;;;;;5055948;28;19921;-82
2022/03/02 05:38:55;;;;;;;;;;;-2.90;50.50;;;;;;5068584;28;19916;-82
2022/03/02 05:41:21;;;;;;;;;;;-2.90;50.30;;;;;;5058551;28;19920;-79
2022/03/02 05:43:48;;;;;;;;;;;-2.90;50.40;;;;;;5054451;28;19921;-79
2022/03/02 05:46:14;;;;;;;;;;;-2.90;50.40;;;;;;5056241;28;19943;-79
2022/03/02 05:48:40;;;;;;;;;;;-2.90;50.40;;;;;;5063284;28;19924;-80
2022/03/02 05:51:06;;;;;;;;;;;-3.00;50.00;;;;;;5051433;28;19917;-79
2022/03/02 05:53:32;;;;;;;;;;;-3.10;50.70;;;;;;5053528;28;19916;-82
2022/03/02 05:55:58;;;;;;;;;;;-3.10;50.90;;;;;;5041557;28;20358;-80
2022/03/02 05:58:25;;;;;;;;;;;-3.20;50.90;;;;;;5056166;28;19925;-82
2022/03/02 06:00:52;;;;;;;;;;;-3.20;50.90;;;;;;5037203;28;19925;-82
2022/03/02 06:03:19;;;;;;;;;;;-3.20;50.70;;;;;;5058119;28;20365;-79
2022/03/02 06:05:44;;;;;;;;;;;-3.20;50.60;;;;;;5069082;28;19920;-79
2022/03/02 06:08:10;;;;;;;;;;;-3.10;50.60;;;;;;5069458;28;20336;-84
2022/03/02 06:10:37;;;;;;;;;;;-3.10;50.50;;;;;;5071206;28;19920;-81
2022/03/02 06:13:03;;;;;;;;;;;-3.00;50.40;;;;;;5054315;28;19960;-80
2022/03/02 06:15:30;;;;;;;;;;;-3.00;50.00;;;;;;5069006;28;19970;-82
2022/03/02 06:18:01;;;;;;;;;;;-2.90;50.60;;;;;;5054062;28;20007;-81
2022/03/02 06:20:47;;;;;;;;;;;-3.00;50.40;;;;;;5055667;28;19920;-80
2022/03/02 06:23:13;;;;;;;;;;;-2.80;50.40;;;;;;5086583;28;19920;-83
2022/03/02 06:25:40;;;;;;;;;;;-2.90;49.90;;;;;;5052433;28;19920;-79
2022/03/02 06:28:05;;;;;;;;;;;-2.80;49.90;;;;;;5070533;28;19920;-81
2022/03/02 06:30:32;;;;;;;;;;;-2.70;50.40;;;;;;5055231;28;19920;-82
2022/03/02 06:32:58;;;;;;;;;;;-2.70;49.90;;;;;;5069795;28;19916;-82
2022/03/02 06:35:24;;;;;;;;;;;-2.60;50.40;;;;;;5058033;28;19982;-79
2022/03/02 06:37:50;;;;;;;;;;;-2.60;49.80;;;;;;5053308;28;20414;-80
2022/03/02 06:40:16;;;;;;;;;;;-2.50;50.60;;;;;;5052897;28;19927;-80
2022/03/02 06:43:01;;;;;;;;;;;-2.40;50.50;;;;;;5064726;28;19951;-79
2022/03/02 06:45:52;;;;;;;;;;;-2.40;50.30;;;;;;5071945;28;19924;-83
2022/03/02 06:48:21;;;;;;;;;;;-2.30;50.30;;;;;;5072243;28;19927;-83
2022/03/02 06:50:50;;;;;;;;;;;-2.20;50.30;;;;;;5070136;28;19916;-83
2022/03/02 06:53:16;;;;;;;;;;;-2.10;50.30;;;;;;5069810;28;19920;-83
2022/03/02 06:55:43;;;;;;;;;;;-2.10;50.40;;;;;;5069057;28;19966;-80
2022/03/02 06:58:11;;;;;;;;;;;-2.00;50.30;;;;;;5069596;28;19962;-83
2022/03/02 07:00:38;;;;;;;;;;;-1.90;50.30;;;;;;5060469;28;19936;-80
2022/03/02 07:03:09;;;;;;;;;;;-1.80;50.30;;;;;;5036652;28;19917;-79
2022/03/02 07:05:36;;;;;;;;;;;-1.70;50.30;;;;;;5060454;28;19917;-79
2022/03/02 07:08:03;;;;;;;;;;;-1.60;50.20;;;;;;5047409;28;20407;-83
2022/03/02 07:10:48;;;;;;;;;;;-1.60;50.30;;;;;;5042040;28;19944;-84
2022/03/02 07:13:14;;;;;;;;;;;-1.50;50.20;;;;;;5069026;28;19920;-84
2022/03/02 07:15:40;;;;;;;;;;;-1.40;50.30;;;;;;5067803;28;19921;-84
2022/03/02 07:18:07;;;;;;;;;;;-1.30;50.50;;;;;;5062289;28;19923;-80
2022/03/02 07:20:37;;;;;;;;;;;-1.20;50.50;;;;;;5054996;28;19939;-79
2022/03/02 07:23:03;;;;;;;;;;;-1.10;50.40;;;;;;5054031;28;19927;-79
2022/03/02 07:25:49;;;;;;;;;;;-1.00;50.40;;;;;;5063838;28;19964;-79
2022/03/02 07:28:15;;;;;;;;;;;-0.90;50.50;;;;;;5055282;28;19921;-84
2022/03/02 07:30:44;;;;;;;;;;;-0.80;50.60;;;;;;5055820;28;19921;-79
2022/03/02 07:33:14;;;;;;;;;;;-0.70;50.80;;;;;;5049995;28;20001;-80
2022/03/02 07:35:40;;;;;;;;;;;-0.60;50.70;;;;;;5052685;28;20018;-84
2022/03/02 07:38:07;;;;;;;;;;;-0.60;50.70;;;;;;5037126;28;20289;-84
2022/03/02 07:40:34;;;;;;;;;;;-0.60;50.80;;;;;;5067586;28;20286;-83
2022/03/02 07:43:00;;;;;;;;;;;-0.50;50.90;;;;;;5053127;28;19979;-79
2022/03/02 07:45:26;;;;;;;;;;;-0.40;50.50;;;;;;5035581;28;20419;-85
2022/03/02 07:47:52;;;;;;;;;;;-0.30;50.80;;;;;;5070697;28;19912;-85
2022/03/02 07:50:18;;;;;;;;;;;-0.20;50.90;;;;;;5052814;28;19943;-79
2022/03/02 07:53:03;;;;;;;;;;;0.00;51.00;;;;;;5035588;28;19974;-79
2022/03/02 07:55:29;;;;;;;;;;;0.10;50.90;;;;;;5052817;28;20019;-79
2022/03/02 07:57:55;;;;;;;;;;;0.20;50.40;;;;;;5067856;28;19949;-80
2022/03/02 08:00:22;;;;;;;;;;;0.40;50.70;;;;;;5066868;28;19946;-79
2022/03/02 08:02:51;;;;;;;;;;;0.50;50.70;;;;;;5069193;28;19923;-86
2022/03/02 08:05:17;;;;;;;;;;;0.70;50.50;;;;;;5067089;28;19924;-87
2022/03/02 08:07:43;;;;;;;;;;;0.80;50.10;;;;;;5055884;28;19921;-86
2022/03/02 08:10:10;;;;;;;;;;;1.00;50.60;;;;;;5063915;28;19924;-79
2022/03/02 08:12:36;;;;;;;;;;;1.10;50.60;;;;;;5042964;28;19929;-79
2022/03/02 08:15:05;;;;;;;;;;;1.30;50.70;;;;;;5053182;28;20421;-80
2022/03/02 08:17:31;;;;;;;;;;;1.60;50.40;;;;;;5052831;28;20003;-80
2022/03/02 08:19:57;;;;;;;;;;;2.90;49.40;;;;;;5060130;28;19920;-79
2022/03/02 08:22:24;;;;;;;;;;;4.70;47.00;;;;;;5065610;28;19930;-80
2022/03/02 08:25:11;;;;;;;;;;;6.30;45.00;;;;;;5070741;28;19921;-86
2022/03/02 08:27:57;;;;;;;;;;;7.70;44.10;;;;;;5070838;28;19959;-80
2022/03/02 08:30:23;;;;;;;;;;;9.00;43.60;;;;;;5056620;28;19977;-80
2022/03/02 08:32:50;;;;;;;;;;;10.10;44.00;;;;;;5066789;28;19920;-86
2022/03/02 08:35:16;;;;;;;;;;;11.20;42.40;;;;;;5045713;28;20003;-83
2022/03/02 08:37:43;;;;;;;;;;;12.20;41.60;;;;;;5071994;28;19924;-86
2022/03/02 08:40:10;;;;;;;;;;;13.00;40.70;;;;;;5054544;28;19920;-87
2022/03/02 08:42:36;;;;;;;;;;;14.00;39.80;;;;;;5055821;28;20288;-87
2022/03/02 08:45:03;;;;;;;;;;;14.90;39.00;;;;;;5069623;28;19925;-87
2022/03/02 08:47:31;;;;;;;;;;;15.80;38.00;;;;;;5057564;28;19923;-86
2022/03/02 08:49:57;;;;;;;;;;;16.50;37.00;;;;;;5071916;28;20560;-86
2022/03/02 08:52:42;;;;;;;;;;;17.40;36.00;;;;;;5071663;28;19925;-79
2022/03/02 08:55:10;;;;;;;;;;;18.00;34.90;;;;;;5054808;28;19920;-85
2022/03/02 08:57:56;;;;;;;;;;;18.60;34.10;;;;;;5039155;28;19920;-85
2022/03/02 09:00:22;;;;;;;;;;;19.80;32.40;;;;;;5054365;28;19930;-80
2022/03/02 09:02:48;;;;;;;;;;;20.40;31.80;;;;;;5056151;28;20433;-80
2022/03/02 09:05:14;;;;;;;;;;;21.10;30.40;;;;;;5036219;28;20387;-84
2022/03/02 09:07:41;;;;;;;;;;;21.40;30.00;;;;;;5052813;28;19952;-81
2022/03/02 09:10:07;;;;;;;;;;;22.00;29.30;;;;;;5052959;28;20020;-80
2022/03/02 09:12:33;;;;;;;;;;;22.80;28.40;;;;;;5054961;28;19927;-80
2022/03/02 09:15:01;;;;;;;;;;;23.50;27.40;;;;;;5055966;28;19927;-83
2022/03/02 09:17:28;;;;;;;;;;;24.30;27.00;;;;;;5055552;28;19921;-83
2022/03/02 09:19:55;;;;;;;;;;;24.60;25.60;;;;;;5069245;28;20023;-80
2022/03/02 09:22:23;;;;;;;;;;;24.90;24.80;;;;;;5058083;28;20315;-81
2022/03/02 09:24:49;;;;;;;;;;;25.50;24.30;;;;;;5054720;28;19927;-81
2022/03/02 09:27:17;;;;;;;;;;;26.20;23.30;;;;;;5067476;28;20373;-80
2022/03/02 09:29:46;;;;;;;;;;;26.60;22.20;;;;;;5061762;28;19917;-81
2022/03/02 09:32:13;;;;;;;;;;;27.10;22.00;;;;;;5036800;28;20464;-81
2022/03/02 09:34:45;;;;;;;;;;;27.50;20.90;;;;;;5053924;28;19975;-81
2022/03/02 09:37:31;;;;;;;;;;;27.90;20.60;;;;;;5037462;28;20266;-80
2022/03/02 09:39:58;;;;;;;;;;;28.50;20.50;;;;;;5056495;28;19921;-81
2022/03/02 09:42:42;;;;;;;;;;;29.10;19.30;;;;;;5053400;28;19932;-82
2022/03/02 09:45:10;;;;;;;;;;;29.30;18.90;;;;;;5053292;28;20321;-81
2022/03/02 09:47:57;;;;;;;;;;;30.00;17.60;;;;;;5053200;28;19917;-80
2022/03/02 09:50:26;;;;;;;;;;;30.60;17.50;;;;;;5054012;28;19924;-80
2022/03/02 09:52:54;;;;;;;;;;;31.00;17.30;;;;;;5053852;28;20285;-81
2022/03/02 09:55:24;;;;;;;;;;;31.20;16.70;;;;;;5052086;28;19921;-80
2022/03/02 09:58:10;;;;;;;;;;;30.80;16.40;;;;;;5047839;28;20078;-80
2022/03/02 10:00:36;;;;;;;;;;;31.10;16.70;;;;;;5069208;28;19920;-80
2022/03/02 10:03:02;;;;;;;;;;;31.00;16.10;;;;;;5057948;28;19931;-79
2022/03/02 10:05:30;;;;;;;;;;;30.10;16.80;;;;;;5037687;28;19924;-80
2022/03/02 10:08:17;;;;;;;;;;;30.00;16.10;;;;;;5049948;28;19921;-80
2022/03/02 10:10:47;;;;;;;;;;;29.00;16.50;;;;;;5061024;28;19916;-80
2022/03/02 10:13:14;;;;;;;;;;;28.90;16.00;;;;;;5058520;28;20459;-80
2022/03/02 10:15:42;;;;;;;;;;;28.50;16.50;;;;;;5051337;28;19929;-79
2022/03/02 10:18:11;;;;;;;;;;;28.00;16.10;;;;;;5036424;28;19912;-80
2022/03/02 10:20:57;;;;;;;;;;;26.90;15.50;;;;;;5038008;28;19912;-80
2022/03/02 10:23:36;;;;;;;;;;;26.20;15.90;;;;;;5059118;28;20023;-80
2022/03/02 10:26:18;;;;;;;;;;;25.10;16.30;;;;;;5064852;28;19920;-80
2022/03/02 10:29:07;;;;;;;;;;;24.50;16.80;;;;;;5058118;28;20444;-80
2022/03/02 10:31:55;;;;;;;;;;;24.30;16.70;;;;;;5035724;28;20396;-80
2022/03/02 10:35:00;;;;;;;;;;;24.30;16.50;;;;;;5068758;28;19966;-80
2022/03/02 10:38:03;;;;;;;;;;;24.00;16.60;;;;;;5052826;28;19924;-79
2022/03/02 10:40:32;;;;;;;;;;;24.50;15.00;;;;;;5053384;28;20356;-80
2022/03/02 10:43:01;;;;;;;;;;;24.80;14.80;;;;;;5053400;28;20310;-80
2022/03/02 10:45:47;;;;;;;;;;;24.80;14.90;;;;;;5034353;28;19931;-79
2022/03/02 10:48:50;;;;;;;;;;;25.10;14.90;;;;;;5053974;28;19920;-79
2022/03/02 10:51:17;;;;;;;;;;;24.80;14.50;;;;;;5059149;28;19974;-80
2022/03/02 10:53:46;;;;;;;;;;;24.70;14.50;;;;;;5047862;28;20258;-80
2022/03/02 10:56:14;;;;;;;;;;;26.20;13.90;;;;;;5040205;28;19924;-80
2022/03/02 10:58:45;;;;;;;;;;;27.60;12.50;;;;;;5068604;28;20369;-80
2022/03/02 11:01:11;;;;;;;;;;;27.90;12.90;;;;;;5068038;28;19920;-80
2022/03/02 11:03:37;;;;;;;;;;;27.50;13.10;;;;;;5068309;28;19947;-80
2022/03/02 11:08:54;;;;;;;;;;;24.80;15.20;;;;;;5066451;28;19920;-80
2022/03/02 11:11:21;;;;;;;;;;;24.50;15.80;;;;;;5050793;28;19942;-80
2022/03/02 11:13:50;;;;;;;;;;;25.60;14.50;;;;;;5050791;28;19920;-80
2022/03/02 11:16:35;;;;;;;;;;;26.00;14.60;;;;;;5035125;28;20409;-80
2022/03/02 11:19:26;;;;;;;;;;;26.20;14.20;;;;;;5050935;28;19920;-79
2022/03/02 11:21:51;;;;;;;;;;;27.50;13.50;;;;;;5056576;28;19925;-80
2022/03/02 11:24:20;;;;;;;;;;;28.10;13.10;;;;;;5051755;28;19921;-80
2022/03/02 11:26:48;;;;;;;;;;;28.10;12.30;;;;;;5051927;28;19924;-80
2022/03/02 11:29:17;;;;;;;;;;;27.90;12.30;;;;;;5035422;28;19921;-80
2022/03/02 11:32:09;;;;;;;;;;;28.40;12.00;;;;;;5052879;28;19920;-80
2022/03/02 11:34:42;;;;;;;;;;;29.30;11.90;;;;;;5065210;28;19948;-80
2022/03/02 11:37:09;;;;;;;;;;;30.30;11.60;;;;;;5049928;28;19943;-80
2022/03/02 11:39:42;;;;;;;;;;;29.60;11.90;;;;;;5036500;28;20377;-81
2022/03/02 11:42:09;;;;;;;;;;;28.40;12.60;;;;;;5053145;28;19929;-80
2022/03/02 11:44:55;;;;;;;;;;;26.80;13.20;;;;;;5068029;28;19916;-80
2022/03/02 11:47:21;;;;;;;;;;;26.30;14.00;;;;;;5052171;28;19926;-80
2022/03/02 11:50:07;;;;;;;;;;;25.70;13.70;;;;;;5052573;28;19924;-79
2022/03/02 11:52:36;;;;;;;;;;;27.10;13.40;;;;;;5034046;28;19927;-79
2022/03/02 11:55:20;;;;;;;;;;;28.10;12.60;;;;;;5037695;28;20002;-80
2022/03/02 11:57:49;;;;;;;;;;;28.00;12.40;;;;;;5033968;28;19920;-79
2022/03/02 12:00:33;;;;;;;;;;;28.80;11.70;;;;;;5051617;28;20255;-79
2022/03/02 12:03:02;;;;;;;;;;;29.10;12.00;;;;;;5063747;28;19917;-80
2022/03/02 12:05:31;;;;;;;;;;;30.10;11.50;;;;;;5036115;28;19924;-80
2022/03/02 12:08:17;;;;;;;;;;;31.80;9.80;;;;;;5050139;28;20039;-79
2022/03/02 12:10:52;;;;;;;;;;;32.80;9.10;;;;;;5050812;28;20016;-79
2022/03/02 12:13:20;;;;;;;;;;;33.80;8.40;;;;;;5034475;28;20373;-79
2022/03/02 12:16:06;;;;;;;;;;;33.40;8.20;;;;;;5053369;28;19921;-79
2022/03/02 12:18:37;;;;;;;;;;;32.60;7.80;;;;;;5057809;28;19921;-79
2022/03/02 12:21:03;;;;;;;;;;;32.40;8.20;;;;;;5051224;28;19946;-80
2022/03/02 12:23:32;;;;;;;;;;;32.80;8.50;;;;;;5062951;28;19916;-80
2022/03/02 12:26:00;;;;;;;;;;;34.00;8.60;;;;;;5051694;28;19920;-79
2022/03/02 12:28:26;;;;;;;;;;;34.80;8.00;;;;;;5049407;28;19920;-79
2022/03/02 12:30:52;;;;;;;;;;;35.70;8.20;;;;;;5051710;28;20007;-80
2022/03/02 12:33:19;;;;;;;;;;;35.60;8.20;;;;;;5049444;28;19921;-79
2022/03/02 12:35:45;;;;;;;;;;;35.40;8.30;;;;;;5033595;28;19924;-80
2022/03/02 12:38:12;;;;;;;;;;;36.20;6.90;;;;;;5066940;28;19955;-80
2022/03/02 12:40:42;;;;;;;;;;;36.80;7.20;;;;;;5050662;28;19928;-80
2022/03/02 12:43:29;;;;;;;;;;;36.40;7.40;;;;;;5050064;28;19925;-79
2022/03/02 12:45:56;;;;;;;;;;;36.60;7.70;;;;;;5067502;28;20324;-79
2022/03/02 12:48:24;;;;;;;;;;;37.60;7.00;;;;;;5049212;28;19916;-79
2022/03/02 12:50:50;;;;;;;;;;;38.00;7.30;;;;;;5054345;28;19917;-80
2022/03/02 12:53:16;;;;;;;;;;;39.00;6.60;;;;;;5050374;28;19987;-79
2022/03/02 12:55:42;;;;;;;;;;;39.20;6.00;;;;;;5048533;28;19924;-80
2022/03/02 12:58:09;;;;;;;;;;;39.10;6.70;;;;;;5052967;28;20197;-79
2022/03/02 13:00:35;;;;;;;;;;;39.80;5.70;;;;;;5051317;28;20366;-80
2022/03/02 13:03:06;;;;;;;;;;;40.10;6.10;;;;;;5042258;28;19970;-79
2022/03/02 13:05:38;;;;;;;;;;;40.10;5.80;;;;;;5049476;28;20022;-80
2022/03/02 13:08:26;;;;;;;;;;;40.60;5.60;;;;;;5053355;28;19968;-79
2022/03/02 13:10:52;;;;;;;;;;;40.20;5.60;;;;;;5052778;28;19948;-79
2022/03/02 13:13:38;;;;;;;;;;;41.20;6.10;;;;;;5046308;28;19927;-79
2022/03/02 13:16:23;;;;;;;;;;;41.70;5.80;;;;;;5067764;28;19971;-79
2022/03/02 13:18:51;;;;;;;;;;;41.80;5.80;;;;;;5053438;28;19960;-80
2022/03/02 13:21:39;;;;;;;;;;;41.70;5.60;;;;;;5061759;28;20334;-80
2022/03/02 13:24:23;;;;;;;;;;;41.70;5.70;;;;;;5068578;28;19924;-79
2022/03/02 13:27:12;;;;;;;;;;;42.20;5.70;;;;;;5054263;28;19960;-79
2022/03/02 13:30:15;;;;;;;;;;;42.00;5.70;;;;;;5051828;28;20010;-79
2022/03/02 13:33:18;;;;;;;;;;;41.40;5.10;;;;;;5055229;28;19920;-79
2022/03/02 13:36:02;;;;;;;;;;;40.80;5.00;;;;;;5053360;28;19927;-79
2022/03/02 13:38:47;;;;;;;;;;;40.60;5.40;;;;;;5053916;28;19967;-79
2022/03/02 13:41:50;;;;;;;;;;;40.40;5.40;;;;;;5052116;28;19921;-79
2022/03/02 13:44:36;;;;;;;;;;;41.00;6.00;;;;;;5067258;28;19965;-79
2022/03/02 13:47:08;;;;;;;;;;;41.70;5.10;;;;;;5054107;28;19936;-79
2022/03/02 13:49:50;;;;;;;;;;;41.60;5.60;;;;;;5055560;28;19921;-78
2022/03/02 13:52:17;;;;;;;;;;;41.70;5.80;;;;;;5069377;28;19920;-79
2022/03/02 13:54:43;;;;;;;;;;;42.30;6.20;;;;;;5054097;28;19974;-79
2022/03/02 13:57:29;;;;;;;;;;;42.20;5.60;;;;;;5056514;28;19921;-80
2022/03/02 14:00:32;;;;;;;;;;;42.70;5.80;;;;;;5048865;28;20019;-80
2022/03/02 14:02:58;;;;;;;;;;;42.70;5.80;;;;;;5053567;28;19927;-79
2022/03/02 14:05:26;;;;;;;;;;;42.80;5.90;;;;;;5053313;28;19931;-79
2022/03/02 14:10:56;;;;;;;;;;;42.30;5.90;;;;;;5052911;28;19927;-79
2022/03/02 14:13:32;;;;;;;;;;;42.30;6.00;;;;;;5053255;28;19943;-79
2022/03/02 14:16:04;;;;;;;;;;;42.30;6.00;;;;;;5035021;28;19921;-79
2022/03/02 14:18:30;;;;;;;;;;;42.30;6.10;;;;;;5050783;28;19921;-79
2022/03/02 14:20:56;;;;;;;;;;;41.70;5.70;;;;;;5056182;28;19922;-79
2022/03/02 14:23:22;;;;;;;;;;;41.50;5.60;;;;;;5053327;28;19921;-79
2022/03/02 14:25:53;;;;;;;;;;;41.40;5.20;;;;;;5052784;28;19920;-79
2022/03/02 14:28:19;;;;;;;;;;;41.50;5.90;;;;;;5052606;28;20289;-80
2022/03/02 14:30:45;;;;;;;;;;;41.60;5.60;;;;;;5052283;28;19921;-79
2022/03/02 14:33:13;;;;;;;;;;;41.30;6.00;;;;;;5053906;28;19913;-79
2022/03/02 14:35:39;;;;;;;;;;;41.50;5.70;;;;;;5051783;28;19912;-79
2022/03/02 14:38:06;;;;;;;;;;;40.90;5.40;;;;;;5035917;28;19921;-79
2022/03/02 14:40:51;;;;;;;;;;;40.50;5.80;;;;;;5052264;28;19924;-79
2022/03/02 14:43:19;;;;;;;;;;;40.70;5.80;;;;;;5056459;28;20409;-79